Time;durP1;ratioP1;P1;durP2;ratioP2;P2;SDS_P1;SDS_P2;PMS_P1;PMS_P2;Temp;Humidity;BMP_temperature;BMP_pressure;BME280_temperature;BME280_humidity;BME280_pressure;Samples;Min_cycle;Max_cycle;Signal;HPM_P1;HPM_P2
2023/07/18 00:01:31;;;;;;;0.50;0.50;;;;;;;17.30;82.13;101244.00;4957069;28;20038;-61
2023/07/18 00:03:56;;;;;;;1.55;0.50;;;;;;;17.27;82.25;101222.19;4949834;28;20492;-62
2023/07/18 00:06:24;;;;;;;0.35;0.32;;;;;;;17.31;83.05;101236.59;4951313;28;20082;-61
2023/07/18 00:08:50;;;;;;;1.33;0.73;;;;;;;17.18;82.72;101230.75;4948592;28;20031;-62
2023/07/18 00:11:16;;;;;;;0.60;0.50;;;;;;;17.14;83.55;101225.31;4954395;28;20082;-62
2023/07/18 00:13:42;;;;;;;0.98;0.75;;;;;;;17.14;83.17;101228.03;4950983;28;20063;-61
2023/07/18 00:16:08;;;;;;;2.03;0.60;;;;;;;17.13;83.41;101229.16;4949749;28;20086;-63
2023/07/18 00:18:34;;;;;;;0.68;0.40;;;;;;;17.03;83.80;101240.03;4963897;28;20031;-62
2023/07/18 00:21:00;;;;;;;0.45;0.45;;;;;;;16.93;83.96;101224.44;4925208;29;20488;-62
2023/07/18 00:23:25;;;;;;;0.98;0.52;;;;;;;16.96;84.52;101229.09;4950683;28;20031;-62
2023/07/18 00:25:52;;;;;;;0.85;0.57;;;;;;;17.08;84.06;101226.84;4929683;28;20488;-62
2023/07/18 00:28:17;;;;;;;1.42;0.55;;;;;;;17.04;84.53;101231.47;4934027;28;20114;-62
2023/07/18 00:30:43;;;;;;;0.50;0.40;;;;;;;17.09;84.45;101233.06;4947259;29;20118;-62
2023/07/18 00:33:08;;;;;;;2.10;0.80;;;;;;;17.00;84.43;101225.25;4928492;28;20580;-62
2023/07/18 00:35:34;;;;;;;1.08;0.60;;;;;;;17.00;84.06;101227.97;4957055;28;20042;-62
2023/07/18 00:38:00;;;;;;;1.50;0.52;;;;;;;17.08;84.61;101231.50;4947220;28;20031;-62
2023/07/18 00:40:26;;;;;;;1.13;0.65;;;;;;;17.14;83.99;101222.56;4937905;28;20054;-62
2023/07/18 00:42:51;;;;;;;0.55;0.52;;;;;;;17.13;84.38;101229.16;4911621;29;20063;-61
2023/07/18 00:45:37;;;;;;;3.80;0.52;;;;;;;17.21;83.99;101229.97;4944121;28;20038;-64
2023/07/18 00:48:02;;;;;;;0.65;0.55;;;;;;;17.21;84.13;101229.97;4874678;29;20262;-64
2023/07/18 00:50:28;;;;;;;1.05;0.50;;;;;;;17.24;84.00;101222.97;4874440;29;20563;-61
2023/07/18 00:52:54;;;;;;;0.63;0.63;;;;;;;17.24;84.37;101229.22;4868305;29;20168;-61
2023/07/18 00:55:19;;;;;;;1.58;0.65;;;;;;;17.28;83.83;101221.84;4878557;29;20558;-62
2023/07/18 00:57:46;;;;;;;0.75;0.70;;;;;;;17.22;84.54;101225.31;4870556;29;20053;-62
2023/07/18 01:00:14;;;;;;;2.00;0.77;;;;;;;17.18;84.62;101219.84;4849729;29;20495;-63
2023/07/18 01:02:43;;;;;;;2.45;0.80;;;;;;;17.20;85.61;101220.25;4859891;29;20045;-61
2023/07/18 01:05:09;;;;;;;0.95;0.80;;;;;;;17.22;86.06;101220.66;4878732;29;20052;-62
2023/07/18 01:07:37;;;;;;;2.05;1.20;;;;;;;17.17;86.22;101216.34;4875638;29;20038;-62
2023/07/18 01:10:14;;;;;;;1.83;0.80;;;;;;;17.23;86.18;101218.72;4863098;29;20033;-62
2023/07/18 01:12:39;;;;;;;2.60;0.85;;;;;;;17.22;86.85;101223.38;4846410;29;20574;-62
2023/07/18 01:15:12;;;;;;;0.55;0.50;;;;;;;17.26;86.87;101223.38;4868388;29;20033;-62
2023/07/18 01:17:41;;;;;;;1.10;0.60;;;;;;;17.29;86.41;101226.09;4854145;29;20033;-62
2023/07/18 01:20:11;;;;;;;1.55;1.00;;;;;;;17.25;86.54;101222.59;4848014;29;20042;-62
2023/07/18 01:22:38;;;;;;;3.45;1.10;;;;;;;17.25;86.50;101228.03;4859938;29;20057;-62
2023/07/18 01:25:04;;;;;;;1.73;1.00;;;;;;;17.27;86.59;101225.72;4903321;28;20042;-62
2023/07/18 01:27:32;;;;;;;3.60;1.05;;;;;;;17.23;86.51;101227.63;4955816;28;20598;-62
2023/07/18 01:29:58;;;;;;;1.05;0.85;;;;;;;17.08;87.37;101224.09;4958494;28;20103;-62
2023/07/18 01:32:24;;;;;;;2.00;0.90;;;;;;;17.12;87.33;101224.13;4936242;28;20058;-64
2023/07/18 01:34:51;;;;;;;1.83;0.88;;;;;;;17.09;87.59;101222.94;4950267;28;20460;-62
2023/07/18 01:37:16;;;;;;;1.52;0.95;;;;;;;17.13;87.37;101218.28;4964167;28;20043;-64
2023/07/18 01:39:44;;;;;;;1.13;0.70;;;;;;;17.11;87.46;101220.59;4940468;28;20062;-61
2023/07/18 01:42:10;;;;;;;2.67;1.10;;;;;;;17.09;87.89;101219.44;4944962;28;20028;-64
2023/07/18 01:44:36;;;;;;;1.10;0.60;;;;;;;16.99;87.71;101223.69;4933714;28;20478;-62
2023/07/18 01:47:02;;;;;;;0.77;0.68;;;;;;;17.05;87.75;101224.88;4955376;28;20090;-62
2023/07/18 01:49:28;;;;;;;3.53;0.93;;;;;;;17.01;88.04;101221.34;4938633;28;20031;-60
2023/07/18 01:51:53;;;;;;;3.00;0.90;;;;;;;17.02;88.02;101212.03;4933667;29;20035;-61
2023/07/18 01:54:18;;;;;;;1.00;0.63;;;;;;;16.98;88.15;101213.19;4932072;28;20041;-63
2023/07/18 01:56:44;;;;;;;1.60;0.98;;;;;;;16.95;88.59;101211.25;4937585;28;20093;-64
2023/07/18 01:59:09;;;;;;;0.88;0.85;;;;;;;16.94;88.65;101210.44;4937089;28;20122;-61
2023/07/18 02:01:35;;;;;;;1.35;1.02;;;;;;;17.04;88.14;101214.38;4940452;28;20047;-61
2023/07/18 02:04:01;;;;;;;0.68;0.68;;;;;;;17.01;87.68;101213.19;4931154;28;20035;-62
2023/07/18 02:06:26;;;;;;;1.27;0.88;;;;;;;16.88;88.78;101213.91;4937675;28;20019;-62
2023/07/18 02:08:52;;;;;;;1.95;0.75;;;;;;;16.94;88.23;101215.09;4939168;28;20058;-64
2023/07/18 02:11:17;;;;;;;1.83;1.00;;;;;;;16.91;88.13;101208.50;4960684;28;20038;-65
2023/07/18 02:13:43;;;;;;;2.17;0.98;;;;;;;16.87;88.69;101209.66;4937667;29;20037;-64
2023/07/18 02:16:11;;;;;;;1.38;0.90;;;;;;;16.82;88.76;101207.31;4952766;28;20578;-62
2023/07/18 02:18:36;;;;;;;1.85;1.10;;;;;;;16.88;88.61;101211.97;4931286;28;20032;-63
2023/07/18 02:21:02;;;;;;;1.23;0.93;;;;;;;16.89;88.39;101208.13;4938208;29;20050;-62
2023/07/18 02:23:27;;;;;;;0.98;0.75;;;;;;;16.87;88.75;101206.94;4941697;28;20030;-63
2023/07/18 02:25:53;;;;;;;2.10;0.90;;;;;;;16.92;88.24;101217.44;4943029;29;20035;-62
2023/07/18 02:28:18;;;;;;;1.40;1.00;;;;;;;16.85;88.46;101210.03;4948202;28;20484;-63
2023/07/18 02:30:43;;;;;;;3.83;1.00;;;;;;;16.88;88.36;101216.63;4951264;28;20492;-63
2023/07/18 02:33:10;;;;;;;1.88;0.95;;;;;;;16.81;88.91;101222.84;4941761;28;20533;-61
2023/07/18 02:35:38;;;;;;;1.15;0.82;;;;;;;16.85;88.53;101207.31;4931903;29;20038;-62
2023/07/18 02:38:03;;;;;;;2.03;1.02;;;;;;;16.82;88.92;101208.06;4960673;28;20035;-60
2023/07/18 02:40:29;;;;;;;2.30;1.13;;;;;;;16.80;89.41;101215.06;4951528;28;20042;-61
2023/07/18 02:42:55;;;;;;;1.52;0.85;;;;;;;16.78;88.97;101206.50;4946130;28;20082;-63
2023/07/18 02:45:21;;;;;;;1.58;1.08;;;;;;;16.85;89.17;101198.38;4943014;28;20444;-61
2023/07/18 02:47:46;;;;;;;2.72;1.25;;;;;;;16.81;89.23;101200.28;4965697;28;20042;-62
2023/07/18 02:50:12;;;;;;;1.23;1.05;;;;;;;16.77;89.26;101205.72;4936786;29;20035;-64
2023/07/18 02:52:58;;;;;;;2.10;1.05;;;;;;;16.82;89.24;101202.63;4958597;28;20027;-62
2023/07/18 02:55:24;;;;;;;1.35;1.20;;;;;;;16.73;89.98;101196.78;4904634;29;20051;-63
2023/07/18 02:57:51;;;;;;;1.98;1.17;;;;;;;16.76;89.51;101196.00;4893980;29;20053;-63
2023/07/18 03:00:20;;;;;;;1.17;1.08;;;;;;;16.82;89.09;101199.16;4892789;29;20161;-62
2023/07/18 03:02:48;;;;;;;1.50;1.00;;;;;;;16.83;89.74;101197.97;4897114;29;20520;-62
2023/07/18 03:05:15;;;;;;;2.20;1.33;;;;;;;16.82;89.24;101204.59;4889223;29;20066;-63
2023/07/18 03:07:40;;;;;;;1.52;0.90;;;;;;;16.75;89.64;101201.81;4895307;29;20044;-62
2023/07/18 03:10:06;;;;;;;1.40;1.30;;;;;;;16.83;89.45;101209.63;4899360;29;20126;-62
2023/07/18 03:12:31;;;;;;;1.88;1.27;;;;;;;16.84;89.20;101205.00;4894866;29;20055;-62
2023/07/18 03:14:57;;;;;;;2.03;1.20;;;;;;;16.82;89.01;101212.75;4895539;29;20124;-62
2023/07/18 03:17:23;;;;;;;2.15;1.30;;;;;;;16.77;89.60;101215.81;4898386;29;20191;-61
2023/07/18 03:19:48;;;;;;;5.82;1.50;;;;;;;16.70;89.81;101213.09;4898092;29;20506;-63
2023/07/18 03:22:16;;;;;;;4.45;1.30;;;;;;;16.73;89.70;101215.81;4905570;29;20036;-61
2023/07/18 03:24:42;;;;;;;2.45;1.60;;;;;;;16.79;89.62;101224.38;4905876;29;20534;-65
2023/07/18 03:27:07;;;;;;;3.10;1.45;;;;;;;16.72;90.13;101222.44;4907914;29;20140;-64
2023/07/18 03:29:33;;;;;;;2.78;1.60;;;;;;;16.68;90.93;101229.00;4901435;29;20036;-62
2023/07/18 03:32:00;;;;;;;3.33;1.60;;;;;;;16.66;91.03;101217.72;4913483;28;20051;-63
2023/07/18 03:34:27;;;;;;;1.98;1.60;;;;;;;16.61;91.25;101228.94;4962287;28;20488;-62
2023/07/18 03:36:53;;;;;;;3.17;1.40;;;;;;;16.61;91.37;101218.84;4944840;29;20105;-63
2023/07/18 03:39:19;;;;;;;6.47;1.73;;;;;;;16.65;91.17;101218.88;4949788;28;20031;-61
2023/07/18 03:41:44;;;;;;;2.15;1.00;;;;;;;16.70;91.20;101224.75;4933559;29;20448;-64
2023/07/18 03:44:10;;;;;;;1.98;1.13;;;;;;;16.62;91.43;101222.38;4937064;28;20111;-62
2023/07/18 03:46:35;;;;;;;2.25;1.60;;;;;;;16.68;91.24;101224.34;4938516;28;20032;-62
2023/07/18 03:49:01;;;;;;;1.63;1.15;;;;;;;16.72;91.23;101227.09;4953746;29;20035;-62
2023/07/18 03:51:26;;;;;;;3.35;1.77;;;;;;;16.73;91.14;101223.19;4928878;28;20022;-62
2023/07/18 03:53:51;;;;;;;5.80;1.55;;;;;;;16.77;91.09;101216.63;4953160;28;20042;-62
2023/07/18 03:56:17;;;;;;;3.70;1.30;;;;;;;16.72;91.82;101230.59;4936862;29;20404;-62
2023/07/18 03:58:43;;;;;;;2.70;1.30;;;;;;;16.84;91.38;101226.75;4953366;29;20043;-63
2023/07/18 04:01:10;;;;;;;1.88;1.17;;;;;;;16.85;91.61;101226.38;4937671;28;20035;-61
2023/07/18 04:03:37;;;;;;;2.33;1.08;;;;;;;16.77;91.82;101229.41;4938920;28;20531;-61
2023/07/18 04:06:03;;;;;;;3.50;1.42;;;;;;;16.82;92.44;101220.91;4957828;28;20097;-63
2023/07/18 04:08:29;;;;;;;2.83;1.73;;;;;;;16.81;92.43;101222.84;4947530;28;20081;-59
2023/07/18 04:10:58;;;;;;;3.55;1.60;;;;;;;16.90;92.58;101222.47;4944773;28;20523;-63
2023/07/18 04:13:27;;;;;;;3.15;1.75;;;;;;;16.94;92.55;101226.78;4955936;28;20543;-63
2023/07/18 04:15:55;;;;;;;2.95;1.70;;;;;;;16.98;92.46;101224.84;4938253;29;20640;-62
2023/07/18 04:18:21;;;;;;;3.65;1.70;;;;;;;17.07;92.28;101219.06;4964266;28;20042;-63
2023/07/18 04:20:49;;;;;;;1.90;1.13;;;;;;;17.02;92.05;101224.84;4950912;28;20039;-62
2023/07/18 04:23:14;;;;;;;3.28;1.27;;;;;;;17.08;92.38;101226.84;4951916;28;20043;-60
2023/07/18 04:26:00;;;;;;;3.13;1.70;;;;;;;17.14;92.36;101225.31;4959476;28;20041;-61
2023/07/18 04:28:34;;;;;;;2.70;1.40;;;;;;;17.18;92.49;101228.03;4939930;29;20830;-61
2023/07/18 04:31:02;;;;;;;2.03;1.15;;;;;;;17.26;92.82;101223.38;4950196;29;20039;-61
2023/07/18 04:33:32;;;;;;;2.97;1.50;;;;;;;17.26;92.84;101218.72;4934721;28;20022;-63
2023/07/18 04:35:58;;;;;;;2.03;1.20;;;;;;;17.31;93.00;101223.78;4958566;28;20031;-62
2023/07/18 04:38:23;;;;;;;2.05;1.40;;;;;;;17.37;92.48;101222.22;4950518;28;20564;-62
2023/07/18 04:40:49;;;;;;;3.95;1.73;;;;;;;17.39;92.99;101219.91;4958842;28;20045;-63
2023/07/18 04:43:17;;;;;;;3.10;1.50;;;;;;;17.47;93.07;101223.41;4951696;28;20042;-60
2023/07/18 04:45:47;;;;;;;3.85;1.50;;;;;;;17.45;92.77;101218.34;4940748;28;20407;-63
2023/07/18 04:48:14;;;;;;;4.55;2.00;;;;;;;17.57;92.67;101226.19;4940885;29;20507;-61
2023/07/18 04:50:41;;;;;;;2.63;1.33;;;;;;;17.57;92.25;101225.41;4951662;28;20031;-61
2023/07/18 04:53:07;;;;;;;1.83;1.30;;;;;;;17.55;92.36;101231.25;4939479;28;20047;-63
2023/07/18 04:55:34;;;;;;;1.95;1.58;;;;;;;17.54;92.55;101231.63;4965821;28;20031;-63
2023/07/18 04:58:00;;;;;;;4.05;1.98;;;;;;;17.63;92.11;101232.03;4943650;28;20106;-60
2023/07/18 05:00:28;;;;;;;3.22;1.30;;;;;;;17.69;91.76;101233.97;4960710;28;20021;-63
2023/07/18 05:02:53;;;;;;;4.00;1.38;;;;;;;17.78;92.13;101231.66;4934022;29;20086;-62
2023/07/18 05:05:19;;;;;;;2.75;1.25;;;;;;;17.83;92.54;101242.16;4961422;28;20178;-63
2023/07/18 05:07:46;;;;;;;4.00;1.58;;;;;;;17.90;92.06;101238.66;4952952;28;20057;-63
2023/07/18 05:10:13;;;;;;;1.90;1.20;;;;;;;17.94;92.53;101236.72;4951774;28;20109;-62
2023/07/18 05:12:39;;;;;;;3.33;1.42;;;;;;;18.01;91.91;101240.22;4934955;28;20457;-62
2023/07/18 05:15:06;;;;;;;3.53;1.48;;;;;;;18.08;91.90;101241.38;4955888;28;20035;-60
2023/07/18 05:17:31;;;;;;;2.72;1.52;;;;;;;18.10;91.47;101249.94;4956765;28;20114;-63
2023/07/18 05:19:56;;;;;;;2.55;1.33;;;;;;;18.08;90.74;101252.28;4930916;29;20055;-62
2023/07/18 05:22:22;;;;;;;2.25;1.42;;;;;;;18.03;91.09;101250.72;4954219;28;20099;-63
2023/07/18 05:24:47;;;;;;;3.30;1.95;;;;;;;18.16;90.96;101246.41;4945448;28;20030;-64
2023/07/18 05:27:13;;;;;;;2.55;1.65;;;;;;;18.19;91.09;101237.47;4952887;28;20126;-62
2023/07/18 05:29:39;;;;;;;3.95;1.63;;;;;;;18.43;90.88;101239.38;4934275;28;20449;-63
2023/07/18 05:32:05;;;;;;;3.30;1.50;;;;;;;18.79;90.66;101245.53;4944917;28;20067;-65
2023/07/18 05:34:33;;;;;;;2.88;1.80;;;;;;;19.18;89.90;101242.63;4948125;28;20058;-63
2023/07/18 05:37:00;;;;;;;2.13;1.63;;;;;;;19.57;88.93;101241.22;4963329;28;20094;-63
2023/07/18 05:39:27;;;;;;;3.83;2.03;;;;;;;19.90;86.26;101248.00;4946802;29;20020;-63
2023/07/18 05:41:54;;;;;;;2.78;1.95;;;;;;;20.41;86.00;101258.91;4955313;28;20118;-64
2023/07/18 05:44:20;;;;;;;3.63;1.80;;;;;;;20.77;84.28;101255.78;4919773;29;20071;-62
2023/07/18 05:46:45;;;;;;;2.38;1.58;;;;;;;20.99;82.01;101254.31;4957792;28;20074;-62
2023/07/18 05:49:11;;;;;;;4.15;1.63;;;;;;;21.18;79.99;101250.97;4952687;28;20031;-62
2023/07/18 05:51:36;;;;;;;1.42;1.17;;;;;;;21.39;79.17;101251.47;4923825;28;20101;-64
2023/07/18 05:54:04;;;;;;;4.32;1.05;;;;;;;21.46;77.17;101254.13;4954018;28;20451;-63
2023/07/18 05:56:31;;;;;;;2.35;1.20;;;;;;;21.36;76.87;101243.28;4959914;28;20097;-62
2023/07/18 05:58:56;;;;;;;1.80;1.23;;;;;;;21.46;76.96;101248.63;4952247;29;20024;-62
2023/07/18 06:01:24;;;;;;;1.58;1.20;;;;;;;21.31;76.91;101252.75;4958411;28;20035;-61
2023/07/18 06:03:50;;;;;;;2.47;1.05;;;;;;;21.40;77.13;101244.03;4949547;28;20038;-63
2023/07/18 06:06:15;;;;;;;7.57;1.13;;;;;;;21.62;77.59;101247.22;4963116;28;20049;-61
2023/07/18 06:08:41;;;;;;;1.23;0.95;;;;;;;21.89;76.21;101248.00;4953779;28;20768;-62
2023/07/18 06:11:07;;;;;;;2.10;1.33;;;;;;;22.07;75.60;101242.97;4962965;28;20023;-63
2023/07/18 06:13:32;;;;;;;7.55;1.55;;;;;;;22.29;75.19;101247.69;4955709;28;20400;-62
2023/07/18 06:15:58;;;;;;;2.35;0.90;;;;;;;22.36;73.37;101255.00;4938506;29;20098;-62
2023/07/18 06:18:24;;;;;;;1.80;1.15;;;;;;;22.32;73.40;101248.78;4955575;28;20042;-63
2023/07/18 06:20:50;;;;;;;3.70;1.15;;;;;;;22.25;73.57;101254.41;4949178;28;20043;-64
2023/07/18 06:23:15;;;;;;;1.60;1.15;;;;;;;22.27;73.84;101246.53;4949248;28;20023;-60
2023/07/18 06:25:41;;;;;;;3.67;1.30;;;;;;;22.22;72.43;101258.75;4955453;28;20089;-60
2023/07/18 06:28:09;;;;;;;3.97;1.27;;;;;;;22.18;73.15;101257.28;4938577;29;20488;-61
2023/07/18 06:30:35;;;;;;;4.28;1.38;;;;;;;22.17;73.57;101253.00;4955405;28;20106;-58
2023/07/18 06:33:00;;;;;;;3.40;1.92;;;;;;;22.13;73.79;101255.78;4944158;28;20559;-61
2023/07/18 06:35:26;;;;;;;3.03;1.20;;;;;;;21.94;74.92;101253.00;4946971;28;20030;-62
2023/07/18 06:37:51;;;;;;;1.27;1.00;;;;;;;22.15;74.65;101256.16;4932444;28;20042;-63
2023/07/18 06:40:17;;;;;;;2.63;1.30;;;;;;;22.32;74.37;101260.56;4948821;28;20031;-63
2023/07/18 06:42:43;;;;;;;3.72;1.40;;;;;;;22.40;75.01;101266.69;4950092;28;20055;-63
2023/07/18 06:45:12;;;;;;;3.67;1.13;;;;;;;22.53;74.65;101267.59;4954420;28;20085;-63
2023/07/18 06:47:37;;;;;;;4.10;1.10;;;;;;;22.71;74.65;101270.84;4935015;29;20093;-62
2023/07/18 06:50:03;;;;;;;4.93;0.90;;;;;;;22.74;73.12;101270.00;4954757;28;21157;-62
2023/07/18 06:52:29;;;;;;;2.10;1.08;;;;;;;22.84;72.76;101276.47;4950725;28;20147;-63
2023/07/18 06:54:55;;;;;;;3.30;1.38;;;;;;;22.89;71.45;101267.72;4956850;28;20085;-64
2023/07/18 06:57:20;;;;;;;2.25;1.00;;;;;;;22.91;71.71;101268.88;4961366;28;20023;-64
2023/07/18 06:59:45;;;;;;;1.40;0.80;;;;;;;22.92;71.37;101275.91;4965582;28;20031;-63
2023/07/18 07:02:12;;;;;;;2.28;0.90;;;;;;;23.02;71.39;101260.38;4962001;28;20038;-62
2023/07/18 07:04:39;;;;;;;1.08;0.65;;;;;;;23.11;71.21;101266.09;4972152;28;20503;-63
2023/07/18 07:07:08;;;;;;;1.48;0.70;;;;;;;23.24;70.53;101270.53;4949259;28;20073;-63
2023/07/18 07:09:33;;;;;;;5.53;0.90;;;;;;;23.27;70.17;101264.16;4940379;28;20070;-65
2023/07/18 07:12:00;;;;;;;4.70;0.90;;;;;;;23.19;70.22;101265.50;4959873;28;20035;-61
2023/07/18 07:14:25;;;;;;;4.05;0.80;;;;;;;23.11;70.08;101266.09;4955044;28;20440;-63
2023/07/18 07:16:51;;;;;;;2.60;0.73;;;;;;;23.04;70.21;101258.78;4955567;29;20039;-62
2023/07/18 07:19:17;;;;;;;1.13;0.57;;;;;;;23.17;70.05;101262.41;4937388;29;20034;-63
2023/07/18 07:21:43;;;;;;;1.15;0.77;;;;;;;23.26;71.03;101262.63;4950303;28;20038;-63
2023/07/18 07:24:08;;;;;;;2.25;1.15;;;;;;;23.43;70.03;101273.66;4944548;29;20062;-63
2023/07/18 07:26:34;;;;;;;0.90;0.50;;;;;;;23.42;69.31;101269.38;4954082;28;20070;-63
2023/07/18 07:28:59;;;;;;;1.92;1.20;;;;;;;23.57;69.00;101265.88;4954045;28;20071;-66
2023/07/18 07:31:25;;;;;;;1.90;0.73;;;;;;;23.77;68.35;101271.31;4950895;28;20097;-63
2023/07/18 07:33:50;;;;;;;0.63;0.38;;;;;;;23.85;68.68;101267.16;4962375;28;20039;-63
2023/07/18 07:36:16;;;;;;;2.60;0.63;;;;;;;23.91;68.28;101268.97;4958654;28;20022;-64
2023/07/18 07:38:42;;;;;;;1.30;0.40;;;;;;;23.89;67.93;101270.59;4960451;28;20977;-63
2023/07/18 07:41:07;;;;;;;2.83;1.10;;;;;;;23.81;68.05;101272.00;4965824;28;20041;-63
2023/07/18 07:43:53;;;;;;;2.20;0.70;;;;;;;23.74;67.72;101266.66;4934767;29;20046;-64
2023/07/18 07:46:18;;;;;;;1.08;0.82;;;;;;;23.99;67.20;101275.09;4893762;29;20056;-63
2023/07/18 07:48:44;;;;;;;2.50;0.75;;;;;;;24.21;66.30;101264.34;4895305;29;20040;-64
2023/07/18 07:51:13;;;;;;;1.25;0.55;;;;;;;24.29;66.25;101272.00;4895769;29;20410;-63
2023/07/18 07:53:38;;;;;;;1.30;0.50;;;;;;;24.34;65.34;101273.44;4893414;29;20049;-64
2023/07/18 07:56:04;;;;;;;1.55;0.60;;;;;;;24.22;65.31;101268.63;4895395;29;20107;-63
2023/07/18 07:58:30;;;;;;;1.02;0.70;;;;;;;24.16;65.25;101271.91;4885666;29;20087;-63
2023/07/18 08:00:55;;;;;;;1.90;0.50;;;;;;;24.03;65.13;101278.56;4886888;29;20060;-63
2023/07/18 08:03:21;;;;;;;0.32;0.32;;;;;;;23.90;64.72;101278.44;4892357;29;20049;-63
2023/07/18 08:05:46;;;;;;;0.70;0.50;;;;;;;23.85;65.09;101269.91;4894327;29;20084;-62
2023/07/18 08:08:12;;;;;;;5.78;0.80;;;;;;;24.04;65.01;101269.09;4871638;29;20055;-62
2023/07/18 08:10:38;;;;;;;1.08;0.65;;;;;;;24.29;65.32;101260.97;4894430;29;20048;-64
2023/07/18 08:13:03;;;;;;;0.77;0.55;;;;;;;24.45;63.50;101263.69;4877522;29;20101;-63
2023/07/18 08:15:28;;;;;;;3.83;0.70;;;;;;;24.60;63.47;101253.81;4878920;29;20559;-63
2023/07/18 08:17:54;;;;;;;2.20;1.23;;;;;;;24.93;62.21;101258.00;4887072;29;20569;-64
2023/07/18 08:20:21;;;;;;;1.13;0.63;;;;;;;25.12;59.81;101258.28;4895006;29;20076;-64
2023/07/18 08:22:47;;;;;;;0.88;0.68;;;;;;;25.25;60.80;101259.84;4903252;28;20047;-63
2023/07/18 08:25:13;;;;;;;2.30;0.77;;;;;;;25.31;60.13;101260.06;4956433;28;20050;-63
2023/07/18 08:27:38;;;;;;;2.42;0.77;;;;;;;25.18;59.42;101260.06;4955415;28;20023;-64
2023/07/18 08:30:04;;;;;;;4.13;0.60;;;;;;;25.05;59.83;101251.75;4957345;28;20031;-63
2023/07/18 08:32:30;;;;;;;2.03;0.57;;;;;;;25.04;59.59;101249.44;4941161;28;20408;-63
2023/07/18 08:34:56;;;;;;;2.30;0.50;;;;;;;25.10;58.22;101253.19;4941482;29;20027;-64
2023/07/18 08:37:30;;;;;;;1.45;0.60;;;;;;;25.10;57.52;101247.69;4966305;28;20792;-64
2023/07/18 08:39:56;;;;;;;0.90;0.60;;;;;;;25.31;55.90;101249.00;4973171;28;20134;-63
2023/07/18 08:42:24;;;;;;;2.03;0.90;;;;;;;25.35;55.55;101252.44;4967187;28;20197;-63
2023/07/18 08:44:56;;;;;;;0.60;0.43;;;;;;;25.41;55.17;101247.94;4966866;28;20108;-62
2023/07/18 08:47:22;;;;;;;1.33;0.80;;;;;;;25.38;55.00;101244.06;4956547;28;20050;-64
2023/07/18 08:49:48;;;;;;;1.85;0.65;;;;;;;25.26;55.33;101244.81;4953798;28;20507;-63
2023/07/18 08:52:13;;;;;;;0.60;0.47;;;;;;;25.18;56.19;101234.44;4942145;28;20043;-63
2023/07/18 08:54:39;;;;;;;2.45;0.90;;;;;;;25.29;57.00;101234.91;4936511;29;20122;-63
2023/07/18 08:57:06;;;;;;;1.00;0.60;;;;;;;25.57;56.96;101225.75;4953722;29;20492;-63
2023/07/18 08:59:32;;;;;;;0.85;0.43;;;;;;;25.92;55.46;101233.63;4952898;29;20515;-63
2023/07/18 09:01:57;;;;;;;1.67;0.88;;;;;;;26.09;54.45;101228.78;4926350;29;20032;-64
2023/07/18 09:04:23;;;;;;;1.42;0.90;;;;;;;26.20;54.32;101220.88;4935887;28;20137;-63
2023/07/18 09:07:01;;;;;;;0.80;0.60;;;;;;;26.41;53.69;101222.88;4962423;28;20114;-62
2023/07/18 09:09:27;;;;;;;1.50;0.70;;;;;;;26.58;52.98;101226.22;4935546;29;20066;-63
2023/07/18 09:11:53;;;;;;;0.70;0.57;;;;;;;26.85;52.86;101229.19;4952380;29;20066;-64
2023/07/18 09:14:30;;;;;;;2.60;0.70;;;;;;;26.98;52.26;101227.13;4961899;28;20059;-63
2023/07/18 09:16:58;;;;;;;0.77;0.55;;;;;;;26.87;51.68;101217.69;4956303;28;20035;-63
2023/07/18 09:19:44;;;;;;;0.60;0.60;;;;;;;26.75;50.72;101220.06;4953013;28;20118;-63
2023/07/18 09:22:11;;;;;;;1.90;0.60;;;;;;;26.62;50.46;101226.88;4946478;28;20085;-64
2023/07/18 09:24:38;;;;;;;0.52;0.43;;;;;;;26.39;50.05;101214.28;4959502;28;20031;-63
2023/07/18 09:27:06;;;;;;;0.50;0.50;;;;;;;26.34;50.58;101222.38;4952891;29;20067;-64
2023/07/18 09:29:31;;;;;;;0.73;0.52;;;;;;;26.25;50.83;101217.53;4946961;29;20035;-63
2023/07/18 09:31:57;;;;;;;0.75;0.47;;;;;;;26.13;51.40;101209.31;4946996;29;20373;-63
2023/07/18 09:34:25;;;;;;;1.13;0.55;;;;;;;25.99;51.34;101218.81;4950150;28;20046;-63
2023/07/18 09:37:03;;;;;;;1.05;0.55;;;;;;;25.92;51.74;101213.53;4964716;28;20038;-63
2023/07/18 09:39:29;;;;;;;1.77;0.68;;;;;;;25.94;51.47;101216.63;4971870;28;20122;-63
2023/07/18 09:41:55;;;;;;;0.93;0.60;;;;;;;26.09;51.53;101225.22;4971694;28;20495;-63
2023/07/18 09:44:23;;;;;;;1.08;0.80;;;;;;;26.38;50.69;101214.72;4948824;28;20035;-63
2023/07/18 09:46:50;;;;;;;0.75;0.40;;;;;;;26.53;50.80;101218.53;4962835;28;20039;-64
2023/07/18 09:49:19;;;;;;;2.83;0.50;;;;;;;26.65;50.78;101220.44;4964079;28;20114;-64
2023/07/18 09:51:58;;;;;;;0.70;0.43;;;;;;;26.82;51.62;101216.28;4946087;28;20459;-64
2023/07/18 09:54:26;;;;;;;0.75;0.60;;;;;;;26.85;50.83;101217.38;4950918;28;20097;-63
2023/07/18 09:56:54;;;;;;;0.43;0.40;;;;;;;27.11;49.23;101213.97;4952574;29;20043;-64
2023/07/18 09:59:21;;;;;;;1.17;0.60;;;;;;;27.07;49.52;101215.31;4951975;29;20039;-63
2023/07/18 10:01:48;;;;;;;0.60;0.50;;;;;;;27.26;49.99;101219.69;4950743;28;20035;-63
2023/07/18 10:04:15;;;;;;;0.52;0.43;;;;;;;27.59;48.40;101220.78;4951397;28;20042;-64
2023/07/18 10:06:41;;;;;;;0.40;0.30;;;;;;;27.63;47.99;101224.16;4947031;28;20062;-63
2023/07/18 10:09:07;;;;;;;0.77;0.40;;;;;;;27.84;47.42;101223.28;4934984;29;20484;-63
2023/07/18 10:11:58;;;;;;;0.50;0.45;;;;;;;28.21;47.17;101211.03;4935161;29;20035;-63
2023/07/18 10:14:29;;;;;;;3.38;0.85;;;;;;;28.42;47.63;101212.09;4940050;28;20036;-64
2023/07/18 10:16:59;;;;;;;1.27;0.40;;;;;;;28.43;46.70;101208.88;4962581;28;20050;-62
2023/07/18 10:19:25;;;;;;;0.50;0.30;;;;;;;28.48;46.78;101201.91;4934798;29;20082;-63
2023/07/18 10:21:56;;;;;;;1.05;0.40;;;;;;;28.50;45.63;101216.06;4947990;28;20497;-63
2023/07/18 10:24:24;;;;;;;0.30;0.30;;;;;;;28.36;45.12;101209.16;4951570;28;20035;-64
2023/07/18 10:26:55;;;;;;;0.77;0.32;;;;;;;28.18;44.73;101206.41;4952180;29;20572;-64
2023/07/18 10:29:21;;;;;;;4.05;0.43;;;;;;;28.38;44.90;101194.84;4950659;28;20472;-64
2023/07/18 10:31:46;;;;;;;0.30;0.20;;;;;;;28.41;45.49;101191.94;4947819;28;20037;-64
2023/07/18 10:34:16;;;;;;;0.30;0.30;;;;;;;28.51;44.75;101190.66;4951714;28;20444;-64
2023/07/18 10:36:55;;;;;;;5.15;0.50;;;;;;;28.61;43.50;101188.66;4959971;28;20031;-63
2023/07/18 10:39:37;;;;;;;0.68;0.47;;;;;;;28.41;44.64;101188.38;4971158;28;20396;-63
2023/07/18 10:42:06;;;;;;;0.95;0.32;;;;;;;28.32;44.88;101182.84;4962750;28;20051;-64
2023/07/18 10:44:34;;;;;;;0.73;0.35;;;;;;;28.43;45.00;101178.38;4953892;28;20030;-64
2023/07/18 10:46:59;;;;;;;0.38;0.20;;;;;;;28.38;44.82;101173.44;4962531;28;20114;-64
2023/07/18 10:49:29;;;;;;;0.50;0.40;;;;;;;28.57;45.18;101174.22;4947995;28;20127;-64
2023/07/18 10:51:55;;;;;;;1.38;0.32;;;;;;;28.79;43.80;101171.19;4950986;29;20073;-64
2023/07/18 10:54:20;;;;;;;0.22;0.22;;;;;;;29.05;43.49;101178.69;4952011;28;20051;-64
2023/07/18 10:56:48;;;;;;;0.50;0.40;;;;;;;29.09;43.41;101170.91;4951828;29;20035;-64
2023/07/18 10:59:14;;;;;;;1.05;0.50;;;;;;;29.24;42.89;101168.28;4951568;29;20028;-63
2023/07/18 11:01:40;;;;;;;0.25;0.20;;;;;;;29.53;42.62;101162.09;4961876;28;20029;-64
2023/07/18 11:04:07;;;;;;;0.30;0.28;;;;;;;29.44;41.96;101173.25;4962335;28;20039;-64
2023/07/18 11:06:34;;;;;;;0.45;0.20;;;;;;;29.33;42.13;101154.34;4955782;29;20105;-63
2023/07/18 11:08:59;;;;;;;1.30;0.50;;;;;;;29.50;42.79;101155.47;4954946;28;20095;-64
2023/07/18 11:11:25;;;;;;;0.30;0.10;;;;;;;29.81;41.65;101153.09;4945189;28;20130;-64
2023/07/18 11:13:50;;;;;;;0.32;0.30;;;;;;;29.96;41.33;101148.38;4944559;28;20035;-64
2023/07/18 11:16:16;;;;;;;2.33;0.20;;;;;;;30.05;41.73;101148.28;4970909;28;20038;-63
2023/07/18 11:18:46;;;;;;;0.63;0.40;;;;;;;30.30;41.64;101149.00;4958838;28;20126;-64
2023/07/18 11:21:16;;;;;;;1.25;0.60;;;;;;;30.39;40.21;101140.56;4962307;28;20070;-64
2023/07/18 11:23:42;;;;;;;0.20;0.20;;;;;;;30.72;39.59;101144.66;4951985;29;20050;-64